sensor_id;sensor_type;location;lat;lon;timestamp;P1;durP1;ratioP1;P2;durP2;ratioP2
8480;SDS011;4277;51.354;6.740;2023-02-13T00:02:01;8.07;;;6.70;;
8480;SDS011;4277;51.354;6.740;2023-02-13T00:04:27;7.50;;;6.30;;
8480;SDS011;4277;51.354;6.740;2023-02-13T00:06:53;8.40;;;6.77;;
8480;SDS011;4277;51.354;6.740;2023-02-13T00:09:19;8.00;;;6.80;;
8480;SDS011;4277;51.354;6.740;2023-02-13T00:11:45;8.13;;;6.47;;
8480;SDS011;4277;51.354;6.740;2023-02-13T00:14:11;7.63;;;6.83;;
8480;SDS011;4277;51.354;6.740;2023-02-13T00:16:37;9.00;;;7.00;;
8480;SDS011;4277;51.354;6.740;2023-02-13T00:19:03;7.93;;;6.50;;
8480;SDS011;4277;51.354;6.740;2023-02-13T00:21:29;9.27;;;7.00;;
8480;SDS011;4277;51.354;6.740;2023-02-13T00:23:55;8.70;;;6.90;;
8480;SDS011;4277;51.354;6.740;2023-02-13T00:26:21;7.67;;;6.30;;
8480;SDS011;4277;51.354;6.740;2023-02-13T00:28:47;9.23;;;7.27;;
8480;SDS011;4277;51.354;6.740;2023-02-13T00:31:14;8.07;;;6.30;;
8480;SDS011;4277;51.354;6.740;2023-02-13T00:33:40;7.93;;;6.53;;
8480;SDS011;4277;51.354;6.740;2023-02-13T00:36:11;8.60;;;6.90;;
8480;SDS011;4277;51.354;6.740;2023-02-13T00:38:38;10.53;;;6.83;;
8480;SDS011;4277;51.354;6.740;2023-02-13T00:41:04;8.70;;;6.97;;
8480;SDS011;4277;51.354;6.740;2023-02-13T00:43:30;9.93;;;7.40;;
8480;SDS011;4277;51.354;6.740;2023-02-13T00:45:56;9.13;;;6.87;;
8480;SDS011;4277;51.354;6.740;2023-02-13T00:48:23;8.60;;;6.83;;
8480;SDS011;4277;51.354;6.740;2023-02-13T00:50:49;8.93;;;6.77;;
8480;SDS011;4277;51.354;6.740;2023-02-13T00:53:22;8.57;;;6.70;;
8480;SDS011;4277;51.354;6.740;2023-02-13T00:55:48;9.33;;;7.13;;
8480;SDS011;4277;51.354;6.740;2023-02-13T00:58:14;7.83;;;6.10;;
8480;SDS011;4277;51.354;6.740;2023-02-13T01:00:41;8.77;;;6.97;;
8480;SDS011;4277;51.354;6.740;2023-02-13T01:03:07;8.23;;;6.37;;
8480;SDS011;4277;51.354;6.740;2023-02-13T01:05:33;8.70;;;6.73;;
8480;SDS011;4277;51.354;6.740;2023-02-13T01:07:59;9.30;;;7.10;;
8480;SDS011;4277;51.354;6.740;2023-02-13T01:10:25;9.43;;;7.33;;
8480;SDS011;4277;51.354;6.740;2023-02-13T01:12:51;9.43;;;7.00;;
8480;SDS011;4277;51.354;6.740;2023-02-13T01:15:18;8.40;;;6.93;;
8480;SDS011;4277;51.354;6.740;2023-02-13T01:17:44;8.73;;;7.37;;
8480;SDS011;4277;51.354;6.740;2023-02-13T01:20:10;9.77;;;7.73;;
8480;SDS011;4277;51.354;6.740;2023-02-13T01:22:37;11.50;;;8.67;;
8480;SDS011;4277;51.354;6.740;2023-02-13T01:25:03;9.70;;;7.60;;
8480;SDS011;4277;51.354;6.740;2023-02-13T01:27:29;9.20;;;7.90;;
8480;SDS011;4277;51.354;6.740;2023-02-13T01:29:56;11.53;;;8.57;;
8480;SDS011;4277;51.354;6.740;2023-02-13T01:32:22;11.07;;;7.70;;
8480;SDS011;4277;51.354;6.740;2023-02-13T01:34:48;9.63;;;7.53;;
8480;SDS011;4277;51.354;6.740;2023-02-13T01:37:14;10.60;;;8.17;;
8480;SDS011;4277;51.354;6.740;2023-02-13T01:39:40;11.07;;;8.57;;
8480;SDS011;4277;51.354;6.740;2023-02-13T01:42:16;10.90;;;8.50;;
8480;SDS011;4277;51.354;6.740;2023-02-13T01:44:48;10.97;;;8.57;;
8480;SDS011;4277;51.354;6.740;2023-02-13T01:47:15;10.73;;;8.50;;
8480;SDS011;4277;51.354;6.740;2023-02-13T01:49:43;11.10;;;8.63;;
8480;SDS011;4277;51.354;6.740;2023-02-13T01:52:10;12.17;;;9.67;;
8480;SDS011;4277;51.354;6.740;2023-02-13T01:54:36;11.43;;;8.70;;
8480;SDS011;4277;51.354;6.740;2023-02-13T01:57:11;13.20;;;10.00;;
8480;SDS011;4277;51.354;6.740;2023-02-13T01:59:43;14.20;;;10.67;;
8480;SDS011;4277;51.354;6.740;2023-02-13T02:02:11;12.83;;;9.83;;
8480;SDS011;4277;51.354;6.740;2023-02-13T02:04:37;13.50;;;9.90;;
8480;SDS011;4277;51.354;6.740;2023-02-13T02:07:09;10.97;;;9.03;;
8480;SDS011;4277;51.354;6.740;2023-02-13T02:09:36;13.63;;;9.70;;
8480;SDS011;4277;51.354;6.740;2023-02-13T02:12:05;11.30;;;8.77;;
8480;SDS011;4277;51.354;6.740;2023-02-13T02:14:33;13.93;;;9.70;;
8480;SDS011;4277;51.354;6.740;2023-02-13T02:16:59;13.23;;;10.07;;
8480;SDS011;4277;51.354;6.740;2023-02-13T02:19:40;13.70;;;9.57;;
8480;SDS011;4277;51.354;6.740;2023-02-13T02:25:35;11.90;;;8.70;;
8480;SDS011;4277;51.354;6.740;2023-02-13T02:33:14;11.93;;;8.50;;
8480;SDS011;4277;51.354;6.740;2023-02-13T02:35:46;13.33;;;8.60;;
8480;SDS011;4277;51.354;6.740;2023-02-13T02:38:33;11.53;;;8.80;;
8480;SDS011;4277;51.354;6.740;2023-02-13T02:41:06;11.87;;;8.67;;
8480;SDS011;4277;51.354;6.740;2023-02-13T02:43:57;12.23;;;9.50;;
8480;SDS011;4277;51.354;6.740;2023-02-13T02:46:29;11.80;;;8.83;;
8480;SDS011;4277;51.354;6.740;2023-02-13T02:49:04;11.07;;;8.73;;
8480;SDS011;4277;51.354;6.740;2023-02-13T02:54:32;10.27;;;8.53;;
8480;SDS011;4277;51.354;6.740;2023-02-13T02:57:23;11.83;;;8.70;;
8480;SDS011;4277;51.354;6.740;2023-02-13T02:59:50;10.83;;;8.27;;
8480;SDS011;4277;51.354;6.740;2023-02-13T03:02:36;13.13;;;9.23;;
8480;SDS011;4277;51.354;6.740;2023-02-13T03:05:26;10.93;;;8.73;;
8480;SDS011;4277;51.354;6.740;2023-02-13T03:08:11;11.80;;;8.83;;
8480;SDS011;4277;51.354;6.740;2023-02-13T03:10:38;11.30;;;8.30;;
8480;SDS011;4277;51.354;6.740;2023-02-13T03:13:35;11.60;;;8.50;;
8480;SDS011;4277;51.354;6.740;2023-02-13T03:16:03;11.70;;;8.10;;
8480;SDS011;4277;51.354;6.740;2023-02-13T03:18:50;10.60;;;8.13;;
8480;SDS011;4277;51.354;6.740;2023-02-13T03:21:49;10.20;;;8.07;;
8480;SDS011;4277;51.354;6.740;2023-02-13T03:30:32;10.77;;;7.90;;
8480;SDS011;4277;51.354;6.740;2023-02-13T03:35:47;10.67;;;7.50;;
8480;SDS011;4277;51.354;6.740;2023-02-13T03:38:38;11.50;;;8.37;;
8480;SDS011;4277;51.354;6.740;2023-02-13T03:41:10;9.73;;;7.40;;
8480;SDS011;4277;51.354;6.740;2023-02-13T03:43:46;10.20;;;7.70;;
8480;SDS011;4277;51.354;6.740;2023-02-13T03:46:14;9.60;;;7.70;;
8480;SDS011;4277;51.354;6.740;2023-02-13T03:48:41;9.77;;;7.53;;
8480;SDS011;4277;51.354;6.740;2023-02-13T03:51:28;10.20;;;7.70;;
8480;SDS011;4277;51.354;6.740;2023-02-13T03:53:56;8.97;;;7.20;;
8480;SDS011;4277;51.354;6.740;2023-02-13T03:56:24;9.50;;;7.80;;
8480;SDS011;4277;51.354;6.740;2023-02-13T03:59:15;8.70;;;7.00;;
8480;SDS011;4277;51.354;6.740;2023-02-13T04:01:58;9.40;;;7.33;;
8480;SDS011;4277;51.354;6.740;2023-02-13T04:06:57;10.57;;;7.53;;
8480;SDS011;4277;51.354;6.740;2023-02-13T04:09:25;10.53;;;7.87;;
8480;SDS011;4277;51.354;6.740;2023-02-13T04:11:53;9.90;;;7.90;;
8480;SDS011;4277;51.354;6.740;2023-02-13T04:14:24;11.10;;;8.03;;
8480;SDS011;4277;51.354;6.740;2023-02-13T04:16:54;10.30;;;7.53;;
8480;SDS011;4277;51.354;6.740;2023-02-13T04:19:22;9.60;;;7.70;;
8480;SDS011;4277;51.354;6.740;2023-02-13T04:21:53;9.40;;;7.63;;
8480;SDS011;4277;51.354;6.740;2023-02-13T04:24:20;10.63;;;8.20;;
8480;SDS011;4277;51.354;6.740;2023-02-13T04:26:46;10.10;;;7.77;;
8480;SDS011;4277;51.354;6.740;2023-02-13T04:29:12;10.27;;;8.10;;
8480;SDS011;4277;51.354;6.740;2023-02-13T04:31:38;10.43;;;7.90;;
8480;SDS011;4277;51.354;6.740;2023-02-13T04:34:04;9.60;;;7.60;;
8480;SDS011;4277;51.354;6.740;2023-02-13T04:36:30;9.83;;;7.67;;
8480;SDS011;4277;51.354;6.740;2023-02-13T04:38:56;10.03;;;7.67;;
8480;SDS011;4277;51.354;6.740;2023-02-13T04:41:22;10.83;;;7.80;;
8480;SDS011;4277;51.354;6.740;2023-02-13T04:43:48;10.87;;;8.23;;
8480;SDS011;4277;51.354;6.740;2023-02-13T04:46:16;9.70;;;7.60;;
8480;SDS011;4277;51.354;6.740;2023-02-13T04:48:42;10.30;;;7.93;;
8480;SDS011;4277;51.354;6.740;2023-02-13T04:51:08;9.50;;;7.90;;
8480;SDS011;4277;51.354;6.740;2023-02-13T04:53:34;11.20;;;8.33;;
8480;SDS011;4277;51.354;6.740;2023-02-13T04:56:00;10.70;;;7.80;;
8480;SDS011;4277;51.354;6.740;2023-02-13T04:58:25;9.67;;;7.67;;
8480;SDS011;4277;51.354;6.740;2023-02-13T05:00:51;8.83;;;7.77;;
8480;SDS011;4277;51.354;6.740;2023-02-13T05:03:17;9.77;;;7.80;;
8480;SDS011;4277;51.354;6.740;2023-02-13T05:05:44;10.03;;;7.90;;
8480;SDS011;4277;51.354;6.740;2023-02-13T05:08:09;10.63;;;7.50;;
8480;SDS011;4277;51.354;6.740;2023-02-13T05:10:35;10.57;;;8.20;;
8480;SDS011;4277;51.354;6.740;2023-02-13T05:13:02;11.03;;;7.90;;
8480;SDS011;4277;51.354;6.740;2023-02-13T05:15:28;11.90;;;8.37;;
8480;SDS011;4277;51.354;6.740;2023-02-13T05:17:53;12.43;;;8.77;;
8480;SDS011;4277;51.354;6.740;2023-02-13T05:20:20;13.57;;;9.83;;
8480;SDS011;4277;51.354;6.740;2023-02-13T05:22:46;12.00;;;8.97;;
8480;SDS011;4277;51.354;6.740;2023-02-13T05:25:31;12.20;;;9.50;;
8480;SDS011;4277;51.354;6.740;2023-02-13T05:27:57;12.17;;;10.00;;
8480;SDS011;4277;51.354;6.740;2023-02-13T05:30:23;10.67;;;8.60;;
8480;SDS011;4277;51.354;6.740;2023-02-13T05:32:50;11.93;;;9.20;;
8480;SDS011;4277;51.354;6.740;2023-02-13T05:35:16;11.60;;;9.13;;
8480;SDS011;4277;51.354;6.740;2023-02-13T05:37:42;10.43;;;8.43;;
8480;SDS011;4277;51.354;6.740;2023-02-13T05:40:09;11.77;;;9.57;;
8480;SDS011;4277;51.354;6.740;2023-02-13T05:42:35;12.43;;;8.87;;
8480;SDS011;4277;51.354;6.740;2023-02-13T05:45:01;11.37;;;9.07;;
8480;SDS011;4277;51.354;6.740;2023-02-13T05:47:27;11.07;;;8.30;;
8480;SDS011;4277;51.354;6.740;2023-02-13T05:49:53;10.77;;;8.03;;
8480;SDS011;4277;51.354;6.740;2023-02-13T05:52:19;11.23;;;8.33;;
8480;SDS011;4277;51.354;6.740;2023-02-13T05:54:45;10.77;;;8.97;;
8480;SDS011;4277;51.354;6.740;2023-02-13T05:57:11;13.50;;;10.33;;
8480;SDS011;4277;51.354;6.740;2023-02-13T05:59:37;11.50;;;9.17;;
8480;SDS011;4277;51.354;6.740;2023-02-13T06:02:03;13.10;;;9.30;;
8480;SDS011;4277;51.354;6.740;2023-02-13T06:04:28;12.50;;;9.50;;
8480;SDS011;4277;51.354;6.740;2023-02-13T06:06:54;10.83;;;9.03;;
8480;SDS011;4277;51.354;6.740;2023-02-13T06:09:20;10.73;;;8.97;;
8480;SDS011;4277;51.354;6.740;2023-02-13T06:11:46;12.40;;;9.37;;
8480;SDS011;4277;51.354;6.740;2023-02-13T06:14:12;12.23;;;9.73;;
8480;SDS011;4277;51.354;6.740;2023-02-13T06:16:38;11.73;;;9.10;;
8480;SDS011;4277;51.354;6.740;2023-02-13T06:19:04;12.40;;;9.93;;
8480;SDS011;4277;51.354;6.740;2023-02-13T06:21:30;12.00;;;9.90;;
8480;SDS011;4277;51.354;6.740;2023-02-13T06:24:01;13.10;;;9.93;;
8480;SDS011;4277;51.354;6.740;2023-02-13T06:26:27;12.00;;;9.30;;
8480;SDS011;4277;51.354;6.740;2023-02-13T06:28:53;13.13;;;10.27;;
8480;SDS011;4277;51.354;6.740;2023-02-13T06:31:19;13.17;;;9.37;;
8480;SDS011;4277;51.354;6.740;2023-02-13T06:33:45;13.17;;;10.33;;
8480;SDS011;4277;51.354;6.740;2023-02-13T06:36:11;13.00;;;10.10;;
8480;SDS011;4277;51.354;6.740;2023-02-13T06:38:37;13.53;;;10.30;;
8480;SDS011;4277;51.354;6.740;2023-02-13T06:41:03;12.50;;;10.17;;
8480;SDS011;4277;51.354;6.740;2023-02-13T06:43:29;14.13;;;10.37;;
8480;SDS011;4277;51.354;6.740;2023-02-13T06:45:55;12.00;;;9.43;;
8480;SDS011;4277;51.354;6.740;2023-02-13T06:48:21;13.90;;;10.87;;
8480;SDS011;4277;51.354;6.740;2023-02-13T06:50:47;15.33;;;11.67;;
8480;SDS011;4277;51.354;6.740;2023-02-13T06:53:16;13.23;;;10.03;;
8480;SDS011;4277;51.354;6.740;2023-02-13T06:55:41;14.17;;;11.17;;
8480;SDS011;4277;51.354;6.740;2023-02-13T06:58:07;14.47;;;10.63;;
8480;SDS011;4277;51.354;6.740;2023-02-13T07:00:33;14.00;;;11.23;;
8480;SDS011;4277;51.354;6.740;2023-02-13T07:03:02;13.77;;;10.87;;
8480;SDS011;4277;51.354;6.740;2023-02-13T07:05:28;17.27;;;11.50;;
8480;SDS011;4277;51.354;6.740;2023-02-13T07:07:54;15.67;;;11.77;;
8480;SDS011;4277;51.354;6.740;2023-02-13T07:10:20;16.23;;;12.33;;
8480;SDS011;4277;51.354;6.740;2023-02-13T07:12:46;15.10;;;11.73;;
8480;SDS011;4277;51.354;6.740;2023-02-13T07:15:12;14.70;;;11.60;;
8480;SDS011;4277;51.354;6.740;2023-02-13T07:17:38;14.43;;;10.90;;
8480;SDS011;4277;51.354;6.740;2023-02-13T07:20:04;15.33;;;12.13;;
8480;SDS011;4277;51.354;6.740;2023-02-13T07:22:31;14.30;;;11.07;;
8480;SDS011;4277;51.354;6.740;2023-02-13T07:24:57;13.57;;;10.60;;
8480;SDS011;4277;51.354;6.740;2023-02-13T07:27:24;15.63;;;11.60;;
8480;SDS011;4277;51.354;6.740;2023-02-13T07:29:50;15.13;;;11.03;;
8480;SDS011;4277;51.354;6.740;2023-02-13T07:32:16;15.27;;;11.90;;
8480;SDS011;4277;51.354;6.740;2023-02-13T07:34:42;13.87;;;11.23;;
8480;SDS011;4277;51.354;6.740;2023-02-13T07:37:07;13.57;;;11.47;;
8480;SDS011;4277;51.354;6.740;2023-02-13T07:39:35;15.07;;;11.50;;
8480;SDS011;4277;51.354;6.740;2023-02-13T07:42:02;15.83;;;11.67;;
8480;SDS011;4277;51.354;6.740;2023-02-13T07:44:29;14.47;;;11.37;;
8480;SDS011;4277;51.354;6.740;2023-02-13T07:46:55;14.57;;;11.83;;
8480;SDS011;4277;51.354;6.740;2023-02-13T07:49:20;15.63;;;11.87;;
8480;SDS011;4277;51.354;6.740;2023-02-13T07:51:46;15.37;;;11.90;;
8480;SDS011;4277;51.354;6.740;2023-02-13T07:54:12;14.37;;;11.20;;
8480;SDS011;4277;51.354;6.740;2023-02-13T07:56:38;15.90;;;10.90;;
8480;SDS011;4277;51.354;6.740;2023-02-13T07:59:04;14.87;;;11.50;;
8480;SDS011;4277;51.354;6.740;2023-02-13T08:01:30;13.57;;;11.07;;
8480;SDS011;4277;51.354;6.740;2023-02-13T08:03:56;12.63;;;10.17;;
8480;SDS011;4277;51.354;6.740;2023-02-13T08:06:22;14.53;;;11.60;;
8480;SDS011;4277;51.354;6.740;2023-02-13T08:08:48;16.40;;;11.97;;
8480;SDS011;4277;51.354;6.740;2023-02-13T08:11:34;14.73;;;11.37;;
8480;SDS011;4277;51.354;6.740;2023-02-13T08:14:27;14.63;;;11.20;;
8480;SDS011;4277;51.354;6.740;2023-02-13T08:16:53;15.50;;;12.17;;
8480;SDS011;4277;51.354;6.740;2023-02-13T08:19:19;15.80;;;12.10;;
8480;SDS011;4277;51.354;6.740;2023-02-13T08:21:45;14.40;;;10.97;;
8480;SDS011;4277;51.354;6.740;2023-02-13T08:24:11;14.80;;;10.87;;
8480;SDS011;4277;51.354;6.740;2023-02-13T08:26:38;14.40;;;10.83;;
8480;SDS011;4277;51.354;6.740;2023-02-13T08:29:04;13.97;;;10.90;;
8480;SDS011;4277;51.354;6.740;2023-02-13T08:31:30;13.50;;;11.23;;
8480;SDS011;4277;51.354;6.740;2023-02-13T08:33:56;13.23;;;10.53;;
8480;SDS011;4277;51.354;6.740;2023-02-13T08:36:22;13.10;;;10.53;;
8480;SDS011;4277;51.354;6.740;2023-02-13T08:38:48;14.00;;;10.83;;
8480;SDS011;4277;51.354;6.740;2023-02-13T08:41:14;14.60;;;10.20;;
8480;SDS011;4277;51.354;6.740;2023-02-13T08:43:46;12.60;;;10.20;;
8480;SDS011;4277;51.354;6.740;2023-02-13T08:46:12;13.97;;;10.80;;
8480;SDS011;4277;51.354;6.740;2023-02-13T08:48:38;14.50;;;11.03;;
8480;SDS011;4277;51.354;6.740;2023-02-13T08:51:05;12.77;;;10.13;;
8480;SDS011;4277;51.354;6.740;2023-02-13T08:53:32;11.40;;;9.90;;
8480;SDS011;4277;51.354;6.740;2023-02-13T08:55:58;12.00;;;9.90;;
8480;SDS011;4277;51.354;6.740;2023-02-13T08:58:24;11.63;;;9.57;;
8480;SDS011;4277;51.354;6.740;2023-02-13T09:00:50;12.00;;;9.90;;
8480;SDS011;4277;51.354;6.740;2023-02-13T09:03:16;11.50;;;9.30;;
8480;SDS011;4277;51.354;6.740;2023-02-13T09:05:42;12.40;;;9.83;;
8480;SDS011;4277;51.354;6.740;2023-02-13T09:08:08;14.23;;;9.73;;
8480;SDS011;4277;51.354;6.740;2023-02-13T09:10:36;12.20;;;9.47;;
8480;SDS011;4277;51.354;6.740;2023-02-13T09:13:03;13.47;;;10.30;;
8480;SDS011;4277;51.354;6.740;2023-02-13T09:15:29;11.43;;;9.57;;
8480;SDS011;4277;51.354;6.740;2023-02-13T09:17:55;11.13;;;9.27;;
8480;SDS011;4277;51.354;6.740;2023-02-13T09:20:21;11.53;;;9.37;;
8480;SDS011;4277;51.354;6.740;2023-02-13T09:22:48;10.83;;;8.93;;
8480;SDS011;4277;51.354;6.740;2023-02-13T09:25:14;12.37;;;9.00;;
8480;SDS011;4277;51.354;6.740;2023-02-13T09:27:40;11.93;;;9.60;;
8480;SDS011;4277;51.354;6.740;2023-02-13T09:30:06;12.33;;;9.20;;
8480;SDS011;4277;51.354;6.740;2023-02-13T09:32:33;14.73;;;9.57;;
8480;SDS011;4277;51.354;6.740;2023-02-13T09:34:59;11.47;;;9.17;;
8480;SDS011;4277;51.354;6.740;2023-02-13T09:37:25;13.73;;;9.80;;
8480;SDS011;4277;51.354;6.740;2023-02-13T09:39:51;10.57;;;9.40;;
8480;SDS011;4277;51.354;6.740;2023-02-13T09:42:25;11.47;;;9.83;;
8480;SDS011;4277;51.354;6.740;2023-02-13T09:44:52;11.23;;;9.57;;
8480;SDS011;4277;51.354;6.740;2023-02-13T09:49:50;11.17;;;8.70;;
8480;SDS011;4277;51.354;6.740;2023-02-13T09:52:16;12.57;;;8.87;;
8480;SDS011;4277;51.354;6.740;2023-02-13T09:54:42;10.93;;;8.43;;
8480;SDS011;4277;51.354;6.740;2023-02-13T10:04:54;11.60;;;9.23;;
8480;SDS011;4277;51.354;6.740;2023-02-13T10:07:27;10.20;;;8.83;;
8480;SDS011;4277;51.354;6.740;2023-02-13T10:10:01;11.77;;;8.20;;
8480;SDS011;4277;51.354;6.740;2023-02-13T10:15:25;11.57;;;9.47;;
8480;SDS011;4277;51.354;6.740;2023-02-13T10:17:58;12.43;;;8.67;;
8480;SDS011;4277;51.354;6.740;2023-02-13T10:20:27;11.10;;;9.07;;
8480;SDS011;4277;51.354;6.740;2023-02-13T10:22:58;12.13;;;9.33;;
8480;SDS011;4277;51.354;6.740;2023-02-13T10:25:24;10.43;;;8.80;;
8480;SDS011;4277;51.354;6.740;2023-02-13T10:27:53;9.43;;;8.30;;
8480;SDS011;4277;51.354;6.740;2023-02-13T10:30:21;11.37;;;8.53;;
8480;SDS011;4277;51.354;6.740;2023-02-13T10:32:59;9.93;;;8.00;;
8480;SDS011;4277;51.354;6.740;2023-02-13T10:36:05;12.33;;;7.60;;
8480;SDS011;4277;51.354;6.740;2023-02-13T10:38:39;10.17;;;8.40;;
8480;SDS011;4277;51.354;6.740;2023-02-13T10:44:07;9.97;;;8.13;;
8480;SDS011;4277;51.354;6.740;2023-02-13T10:59:54;11.50;;;8.10;;
8480;SDS011;4277;51.354;6.740;2023-02-13T11:02:24;10.53;;;7.80;;
8480;SDS011;4277;51.354;6.740;2023-02-13T11:04:58;9.30;;;8.17;;
8480;SDS011;4277;51.354;6.740;2023-02-13T11:07:24;11.27;;;7.80;;
8480;SDS011;4277;51.354;6.740;2023-02-13T11:09:52;9.13;;;7.70;;
8480;SDS011;4277;51.354;6.740;2023-02-13T11:12:31;10.13;;;7.63;;
8480;SDS011;4277;51.354;6.740;2023-02-13T11:15:05;9.77;;;6.93;;
8480;SDS011;4277;51.354;6.740;2023-02-13T11:17:35;8.40;;;7.50;;
8480;SDS011;4277;51.354;6.740;2023-02-13T11:20:04;10.50;;;8.17;;
8480;SDS011;4277;51.354;6.740;2023-02-13T11:22:32;11.00;;;7.77;;
8480;SDS011;4277;51.354;6.740;2023-02-13T11:25:00;10.40;;;8.30;;
8480;SDS011;4277;51.354;6.740;2023-02-13T11:27:29;10.70;;;7.63;;
8480;SDS011;4277;51.354;6.740;2023-02-13T11:30:04;11.50;;;7.90;;
8480;SDS011;4277;51.354;6.740;2023-02-13T11:32:38;9.10;;;7.60;;
8480;SDS011;4277;51.354;6.740;2023-02-13T11:35:25;10.17;;;7.77;;
8480;SDS011;4277;51.354;6.740;2023-02-13T11:38:05;10.00;;;7.23;;
8480;SDS011;4277;51.354;6.740;2023-02-13T11:40:35;9.60;;;6.77;;
8480;SDS011;4277;51.354;6.740;2023-02-13T11:43:03;8.17;;;7.03;;
8480;SDS011;4277;51.354;6.740;2023-02-13T11:45:31;8.53;;;7.30;;
8480;SDS011;4277;51.354;6.740;2023-02-13T11:47:57;8.07;;;6.87;;
8480;SDS011;4277;51.354;6.740;2023-02-13T11:53:02;8.93;;;7.60;;
8480;SDS011;4277;51.354;6.740;2023-02-13T11:55:32;8.97;;;7.23;;
8480;SDS011;4277;51.354;6.740;2023-02-13T11:58:03;7.67;;;6.90;;
8480;SDS011;4277;51.354;6.740;2023-02-13T12:02:57;7.37;;;6.63;;
8480;SDS011;4277;51.354;6.740;2023-02-13T12:05:26;9.53;;;6.77;;
8480;SDS011;4277;51.354;6.740;2023-02-13T12:07:54;7.07;;;6.37;;
8480;SDS011;4277;51.354;6.740;2023-02-13T12:15:35;9.40;;;6.37;;
8480;SDS011;4277;51.354;6.740;2023-02-13T12:18:22;7.17;;;6.37;;
8480;SDS011;4277;51.354;6.740;2023-02-13T12:23:28;8.10;;;6.13;;
8480;SDS011;4277;51.354;6.740;2023-02-13T12:28:52;10.57;;;8.03;;
8480;SDS011;4277;51.354;6.740;2023-02-13T12:31:28;9.60;;;7.50;;
8480;SDS011;4277;51.354;6.740;2023-02-13T12:34:17;9.40;;;8.20;;
8480;SDS011;4277;51.354;6.740;2023-02-13T12:36:54;18.80;;;14.00;;
8480;SDS011;4277;51.354;6.740;2023-02-13T12:39:30;8.40;;;7.03;;
8480;SDS011;4277;51.354;6.740;2023-02-13T12:42:01;11.50;;;8.80;;
8480;SDS011;4277;51.354;6.740;2023-02-13T12:47:18;15.80;;;11.73;;
8480;SDS011;4277;51.354;6.740;2023-02-13T12:49:53;11.40;;;8.10;;
8480;SDS011;4277;51.354;6.740;2023-02-13T12:55:00;6.87;;;5.67;;
8480;SDS011;4277;51.354;6.740;2023-02-13T13:05:18;6.40;;;5.80;;
8480;SDS011;4277;51.354;6.740;2023-02-13T13:15:42;8.93;;;5.60;;
8480;SDS011;4277;51.354;6.740;2023-02-13T13:23:32;6.23;;;5.40;;
8480;SDS011;4277;51.354;6.740;2023-02-13T13:26:03;9.03;;;7.10;;
8480;SDS011;4277;51.354;6.740;2023-02-13T13:28:36;7.37;;;5.30;;
8480;SDS011;4277;51.354;6.740;2023-02-13T13:31:03;6.27;;;4.60;;
8480;SDS011;4277;51.354;6.740;2023-02-13T13:33:29;7.40;;;5.33;;
8480;SDS011;4277;51.354;6.740;2023-02-13T13:38:35;7.13;;;5.20;;
8480;SDS011;4277;51.354;6.740;2023-02-13T13:41:28;8.77;;;5.07;;
8480;SDS011;4277;51.354;6.740;2023-02-13T13:48:51;5.73;;;4.87;;
8480;SDS011;4277;51.354;6.740;2023-02-13T13:51:19;7.63;;;4.70;;
8480;SDS011;4277;51.354;6.740;2023-02-13T13:57:15;6.23;;;5.60;;
8480;SDS011;4277;51.354;6.740;2023-02-13T13:59:16;8.10;;;5.03;;
8480;SDS011;4277;51.354;6.740;2023-02-13T14:01:42;7.50;;;5.70;;
8480;SDS011;4277;51.354;6.740;2023-02-13T14:04:35;5.80;;;4.30;;
8480;SDS011;4277;51.354;6.740;2023-02-13T14:11:52;5.93;;;4.73;;
8480;SDS011;4277;51.354;6.740;2023-02-13T14:16:54;5.00;;;4.20;;
8480;SDS011;4277;51.354;6.740;2023-02-13T14:19:28;4.43;;;4.03;;
8480;SDS011;4277;51.354;6.740;2023-02-13T14:24:54;7.67;;;4.03;;
8480;SDS011;4277;51.354;6.740;2023-02-13T14:27:22;7.03;;;4.00;;
8480;SDS011;4277;51.354;6.740;2023-02-13T14:29:48;6.50;;;4.87;;
8480;SDS011;4277;51.354;6.740;2023-02-13T14:32:15;5.20;;;4.37;;
8480;SDS011;4277;51.354;6.740;2023-02-13T14:34:47;6.23;;;4.17;;
8480;SDS011;4277;51.354;6.740;2023-02-13T14:37:15;4.77;;;4.27;;
8480;SDS011;4277;51.354;6.740;2023-02-13T14:40:07;8.53;;;5.13;;
8480;SDS011;4277;51.354;6.740;2023-02-13T14:42:30;8.10;;;4.30;;
8480;SDS011;4277;51.354;6.740;2023-02-13T14:44:58;5.27;;;4.40;;
8480;SDS011;4277;51.354;6.740;2023-02-13T14:47:38;4.80;;;4.20;;
8480;SDS011;4277;51.354;6.740;2023-02-13T14:50:07;7.63;;;4.40;;
8480;SDS011;4277;51.354;6.740;2023-02-13T14:52:41;5.10;;;4.03;;
8480;SDS011;4277;51.354;6.740;2023-02-13T14:55:30;4.03;;;3.63;;
8480;SDS011;4277;51.354;6.740;2023-02-13T14:58:06;7.03;;;3.93;;
8480;SDS011;4277;51.354;6.740;2023-02-13T15:04:02;5.00;;;3.73;;
8480;SDS011;4277;51.354;6.740;2023-02-13T15:06:23;5.23;;;3.50;;
8480;SDS011;4277;51.354;6.740;2023-02-13T15:08:50;4.97;;;3.73;;
8480;SDS011;4277;51.354;6.740;2023-02-13T15:11:34;4.23;;;3.60;;
8480;SDS011;4277;51.354;6.740;2023-02-13T15:16:47;5.77;;;4.30;;
8480;SDS011;4277;51.354;6.740;2023-02-13T15:19:15;7.57;;;3.90;;
8480;SDS011;4277;51.354;6.740;2023-02-13T15:22:00;5.80;;;3.93;;
8480;SDS011;4277;51.354;6.740;2023-02-13T15:24:29;5.93;;;4.43;;
8480;SDS011;4277;51.354;6.740;2023-02-13T15:27:01;5.87;;;3.97;;
8480;SDS011;4277;51.354;6.740;2023-02-13T15:29:27;6.37;;;4.27;;
8480;SDS011;4277;51.354;6.740;2023-02-13T15:31:53;4.33;;;3.80;;
8480;SDS011;4277;51.354;6.740;2023-02-13T15:34:20;4.70;;;3.80;;
8480;SDS011;4277;51.354;6.740;2023-02-13T15:36:46;5.17;;;4.20;;
8480;SDS011;4277;51.354;6.740;2023-02-13T15:39:16;6.97;;;4.60;;
8480;SDS011;4277;51.354;6.740;2023-02-13T15:41:49;4.77;;;4.27;;
8480;SDS011;4277;51.354;6.740;2023-02-13T15:44:18;5.60;;;4.10;;
8480;SDS011;4277;51.354;6.740;2023-02-13T15:46:47;5.63;;;4.20;;
8480;SDS011;4277;51.354;6.740;2023-02-13T15:49:16;6.23;;;4.97;;
8480;SDS011;4277;51.354;6.740;2023-02-13T15:51:43;6.63;;;4.57;;
8480;SDS011;4277;51.354;6.740;2023-02-13T15:54:29;9.70;;;4.47;;
8480;SDS011;4277;51.354;6.740;2023-02-13T15:56:56;10.37;;;4.80;;
8480;SDS011;4277;51.354;6.740;2023-02-13T15:59:23;15.37;;;5.37;;
8480;SDS011;4277;51.354;6.740;2023-02-13T16:01:49;12.83;;;5.10;;
8480;SDS011;4277;51.354;6.740;2023-02-13T16:04:16;6.53;;;4.40;;
8480;SDS011;4277;51.354;6.740;2023-02-13T16:06:44;6.40;;;4.70;;
8480;SDS011;4277;51.354;6.740;2023-02-13T16:11:57;6.47;;;4.93;;
8480;SDS011;4277;51.354;6.740;2023-02-13T16:14:24;8.07;;;4.43;;
8480;SDS011;4277;51.354;6.740;2023-02-13T16:17:01;7.07;;;5.00;;
8480;SDS011;4277;51.354;6.740;2023-02-13T16:19:30;8.20;;;4.80;;
8480;SDS011;4277;51.354;6.740;2023-02-13T16:21:58;7.57;;;4.93;;
8480;SDS011;4277;51.354;6.740;2023-02-13T16:24:25;6.83;;;5.30;;
8480;SDS011;4277;51.354;6.740;2023-02-13T16:26:51;5.83;;;5.07;;
8480;SDS011;4277;51.354;6.740;2023-02-13T16:29:18;7.80;;;5.67;;
8480;SDS011;4277;51.354;6.740;2023-02-13T16:31:45;8.50;;;5.20;;
8480;SDS011;4277;51.354;6.740;2023-02-13T16:34:25;9.57;;;5.50;;
8480;SDS011;4277;51.354;6.740;2023-02-13T16:36:52;6.80;;;5.07;;
8480;SDS011;4277;51.354;6.740;2023-02-13T16:39:19;8.87;;;4.50;;
8480;SDS011;4277;51.354;6.740;2023-02-13T16:41:46;6.53;;;4.60;;
8480;SDS011;4277;51.354;6.740;2023-02-13T16:44:25;8.00;;;4.93;;
8480;SDS011;4277;51.354;6.740;2023-02-13T16:47:00;7.37;;;4.40;;
8480;SDS011;4277;51.354;6.740;2023-02-13T16:49:33;6.03;;;4.13;;
8480;SDS011;4277;51.354;6.740;2023-02-13T16:52:10;6.53;;;4.40;;
8480;SDS011;4277;51.354;6.740;2023-02-13T16:54:55;6.70;;;4.23;;
8480;SDS011;4277;51.354;6.740;2023-02-13T16:57:29;6.07;;;4.00;;
8480;SDS011;4277;51.354;6.740;2023-02-13T17:02:40;7.73;;;4.73;;
8480;SDS011;4277;51.354;6.740;2023-02-13T17:07:54;8.27;;;4.60;;
8480;SDS011;4277;51.354;6.740;2023-02-13T17:10:25;8.27;;;4.57;;
8480;SDS011;4277;51.354;6.740;2023-02-13T17:12:52;7.30;;;4.50;;
8480;SDS011;4277;51.354;6.740;2023-02-13T17:15:19;6.43;;;4.37;;
8480;SDS011;4277;51.354;6.740;2023-02-13T17:17:46;7.07;;;4.47;;
8480;SDS011;4277;51.354;6.740;2023-02-13T17:20:13;6.70;;;4.40;;
8480;SDS011;4277;51.354;6.740;2023-02-13T17:22:41;6.00;;;4.50;;
8480;SDS011;4277;51.354;6.740;2023-02-13T17:25:10;7.33;;;4.57;;
8480;SDS011;4277;51.354;6.740;2023-02-13T17:27:39;7.00;;;4.70;;
8480;SDS011;4277;51.354;6.740;2023-02-13T17:30:07;9.33;;;4.70;;